ジャージー島 の空港の天気 - METARとTAF

ジャージー空港 ( EGJJ / JER ) - ジャージー島 ジャージー島
飛行場実況気象(Metar)
観測時間03/07 02:50 GMT (03/07 02:50 UTC)
風向・風速東北東 3m/s
視程10km以上
天気現象
なし
気温3℃
湿度87%
気圧1026hPa
METAREGJJ 070250Z AUTO 07006KT 9999 NCD 03/01 Q1026
過去の天気等 Google飛行場航空写真 Wunderground天気予報

過去48時間のMETAR

飛行場予報(TAF)
発表時間: 3/07 01:58 GMT (3/07 01:58 UTC)
予報対象時間: 7日3時 GMT ~ 7日12時 GMT
風向・風速東北東 4m/s
視程10km以上
少しの雲 雲底高度 760m
TAF EGJJ 070158Z 0703/0712 07008KT 9999 FEW025